Time;durP1;ratioP1;P1;durP2;ratioP2;P2;SDS_P1;SDS_P2;PMS_P1;PMS_P2;Temp;Humidity;BMP_temperature;BMP_pressure;BME280_temperature;BME280_humidity;BME280_pressure;Samples;Min_cycle;Max_cycle;Signal;HPM_P1;HPM_P2
2024/01/08 00:00:37;;;;;;;8.43;3.50;;;-2.30;99.90;;;;;;5006972;28;20085;-87
2024/01/08 00:03:04;;;;;;;6.68;3.58;;;-2.40;99.90;;;;;;5009153;28;20069;-87
2024/01/08 00:05:31;;;;;;;8.90;4.00;;;-2.40;99.90;;;;;;4995893;28;20538;-86
2024/01/08 00:07:57;;;;;;;9.40;4.10;;;-2.40;99.90;;;;;;4992913;28;20046;-87
2024/01/08 00:10:24;;;;;;;9.20;4.00;;;-2.40;99.90;;;;;;5009578;28;20050;-87
2024/01/08 00:12:51;;;;;;;10.20;3.70;;;-2.40;99.90;;;;;;4996452;28;20521;-87
2024/01/08 00:15:17;;;;;;;9.07;3.72;;;-2.40;99.90;;;;;;5020037;28;20038;-87
2024/01/08 00:17:44;;;;;;;7.90;3.47;;;-2.40;99.90;;;;;;4993909;28;20073;-87
2024/01/08 00:20:11;;;;;;;9.45;4.30;;;-2.40;99.90;;;;;;5003371;28;20066;-87
2024/01/08 00:22:37;;;;;;;7.32;3.50;;;-2.40;99.90;;;;;;4996426;28;20404;-87
2024/01/08 00:25:05;;;;;;;9.35;4.00;;;-2.40;99.90;;;;;;5028173;28;20034;-87
2024/01/08 00:27:32;;;;;;;6.80;3.67;;;-2.40;99.90;;;;;;5004234;28;20042;-87
2024/01/08 00:29:59;;;;;;;9.32;3.78;;;-2.40;99.90;;;;;;4995900;28;20482;-87
2024/01/08 00:32:26;;;;;;;7.95;3.58;;;-2.40;99.90;;;;;;4983542;28;20042;-87
2024/01/08 00:34:52;;;;;;;10.30;3.65;;;-2.40;99.90;;;;;;4996030;28;20045;-87
2024/01/08 00:37:19;;;;;;;8.60;3.63;;;-1.80;99.90;;;;;;5005875;28;20066;-87
2024/01/08 00:39:45;;;;;;;7.43;4.10;;;-2.30;99.90;;;;;;5002517;28;20046;-87
2024/01/08 00:42:12;;;;;;;9.68;3.63;;;-2.30;99.90;;;;;;4983674;28;20039;-87
2024/01/08 00:44:39;;;;;;;7.35;3.80;;;-2.30;99.90;;;;;;5007425;28;20092;-87
2024/01/08 00:47:05;;;;;;;8.07;3.42;;;-2.10;99.90;;;;;;4995879;28;20039;-87
2024/01/08 00:49:32;;;;;;;7.47;3.58;;;-2.30;99.90;;;;;;4992671;28;20054;-87
2024/01/08 00:51:58;;;;;;;8.50;4.30;;;-2.30;99.90;;;;;;4995698;28;20034;-87
2024/01/08 00:54:25;;;;;;;8.50;4.22;;;-2.20;99.90;;;;;;4995934;28;20042;-87
2024/01/08 00:56:52;;;;;;;8.32;3.97;;;-2.20;99.90;;;;;;4996033;28;20042;-88
2024/01/08 00:59:18;;;;;;;7.57;4.10;;;-2.20;99.90;;;;;;5012172;28;20046;-87
2024/01/08 01:01:45;;;;;;;8.25;4.20;;;-2.20;99.90;;;;;;5013356;28;20038;-86
2024/01/08 01:04:11;;;;;;;10.00;4.10;;;-2.20;99.90;;;;;;5001039;28;20034;-87
2024/01/08 01:06:38;;;;;;;7.88;3.95;;;-2.10;99.90;;;;;;4995430;28;20045;-87
2024/01/08 01:09:05;;;;;;;7.22;3.70;;;-1.30;99.90;;;;;;4997862;28;20046;-87
2024/01/08 01:11:32;;;;;;;8.50;4.07;;;-2.10;99.90;;;;;;4982504;28;20380;-87
2024/01/08 01:13:58;;;;;;;8.85;3.92;;;-2.10;99.90;;;;;;4995430;28;20045;-85
2024/01/08 01:16:29;;;;;;;8.10;3.78;;;-2.10;99.90;;;;;;4982963;28;20038;-87
2024/01/08 01:18:56;;;;;;;7.97;3.92;;;-2.10;99.90;;;;;;4985416;28;20086;-87
2024/01/08 01:21:23;;;;;;;9.27;3.90;;;-2.00;99.90;;;;;;5011253;28;20045;-86
2024/01/08 01:23:51;;;;;;;8.82;4.00;;;-2.00;99.90;;;;;;4996531;28;20426;-87
2024/01/08 01:26:18;;;;;;;12.80;4.10;;;-2.00;99.90;;;;;;5007849;28;20041;-87
2024/01/08 01:28:44;;;;;;;9.20;4.20;;;-2.00;99.90;;;;;;5006335;28;20125;-87
2024/01/08 01:31:12;;;;;;;8.77;3.97;;;-2.00;99.90;;;;;;5012235;28;20046;-88
2024/01/08 01:33:39;;;;;;;10.73;4.00;;;-1.90;99.90;;;;;;5015032;28;20540;-87
2024/01/08 01:36:06;;;;;;;9.60;4.65;;;-1.90;99.90;;;;;;5009656;28;20066;-87
2024/01/08 01:38:33;;;;;;;11.02;4.32;;;-1.90;99.90;;;;;;5006985;28;20030;-87
2024/01/08 01:40:59;;;;;;;7.85;4.18;;;-1.90;99.90;;;;;;4998989;28;20124;-87
2024/01/08 01:43:31;;;;;;;8.63;4.63;;;-1.80;99.90;;;;;;5015865;28;20042;-87
2024/01/08 01:46:04;;;;;;;9.48;4.43;;;-1.80;99.90;;;;;;5015110;28;20049;-86
2024/01/08 01:48:30;;;;;;;8.50;4.60;;;-1.80;99.90;;;;;;5014756;28;20066;-86
2024/01/08 01:50:57;;;;;;;10.32;4.13;;;-1.80;99.90;;;;;;5000588;28;20054;-87
2024/01/08 01:53:24;;;;;;;8.35;3.78;;;-1.70;99.90;;;;;;4995680;28;20043;-87
2024/01/08 01:55:52;;;;;;;11.95;4.82;;;-1.70;99.90;;;;;;4995807;28;20516;-88
2024/01/08 01:58:19;;;;;;;9.07;4.45;;;-1.70;99.90;;;;;;4979485;29;20059;-88
2024/01/08 02:00:46;;;;;;;10.45;4.75;;;-1.70;99.90;;;;;;4967737;28;20106;-88
2024/01/08 02:03:13;;;;;;;8.98;4.25;;;-1.70;99.90;;;;;;4995366;28;20182;-88
2024/01/08 02:05:41;;;;;;;8.82;4.20;;;-1.70;99.90;;;;;;5006429;28;20038;-87
2024/01/08 02:08:09;;;;;;;10.80;4.50;;;-1.60;99.90;;;;;;4997132;28;20090;-87
2024/01/08 02:10:40;;;;;;;8.60;4.90;;;-1.60;99.90;;;;;;5027928;28;20107;-87
2024/01/08 02:13:07;;;;;;;12.60;4.97;;;-1.60;99.90;;;;;;4995448;28;20042;-87
2024/01/08 02:15:34;;;;;;;9.07;4.75;;;-1.60;99.90;;;;;;4995151;28;20039;-88
2024/01/08 02:18:01;;;;;;;9.77;4.80;;;-1.50;99.90;;;;;;5002370;28;20162;-87
2024/01/08 02:20:27;;;;;;;10.40;4.68;;;-1.50;99.90;;;;;;5014274;28;20534;-87
2024/01/08 02:22:54;;;;;;;11.05;4.57;;;-1.40;99.90;;;;;;5001761;28;20042;-88
2024/01/08 02:25:21;;;;;;;9.55;4.85;;;-1.50;99.90;;;;;;5013304;28;20056;-87
2024/01/08 02:27:47;;;;;;;10.05;5.05;;;-1.50;99.90;;;;;;4995093;28;20053;-87
2024/01/08 02:30:14;;;;;;;7.80;4.20;;;-1.40;99.90;;;;;;5010348;28;20546;-88
2024/01/08 02:32:40;;;;;;;10.02;4.80;;;-1.40;99.90;;;;;;5002792;28;20046;-86
2024/01/08 02:35:07;;;;;;;10.98;4.82;;;-1.40;99.90;;;;;;5000052;28;20035;-87
2024/01/08 02:37:34;;;;;;;10.13;4.22;;;-1.40;99.90;;;;;;4994949;28;20077;-87
2024/01/08 02:40:01;;;;;;;8.75;4.22;;;-1.40;99.90;;;;;;4982303;28;20051;-88
2024/01/08 02:42:27;;;;;;;10.45;4.03;;;-1.40;99.90;;;;;;4994957;28;20035;-88
2024/01/08 02:44:54;;;;;;;9.20;4.25;;;-1.40;99.90;;;;;;4994978;28;20510;-88
2024/01/08 02:47:21;;;;;;;9.65;4.65;;;-1.30;99.90;;;;;;4994821;28;20034;-88
2024/01/08 02:49:47;;;;;;;8.68;4.10;;;-1.40;99.90;;;;;;4992543;28;20093;-87
2024/01/08 02:52:14;;;;;;;7.45;3.83;;;-1.40;99.90;;;;;;4997834;28;20111;-88
2024/01/08 02:54:41;;;;;;;9.15;4.13;;;-1.40;99.90;;;;;;5007893;28;20078;-86
2024/01/08 02:57:07;;;;;;;8.90;4.07;;;-1.40;99.90;;;;;;4994714;28;20119;-87
2024/01/08 02:59:34;;;;;;;7.82;3.63;;;-1.30;99.90;;;;;;4994706;28;20121;-87
2024/01/08 03:02:00;;;;;;;8.13;3.72;;;-1.40;99.90;;;;;;4994657;28;20046;-87
2024/01/08 03:04:27;;;;;;;7.95;4.03;;;-1.40;99.90;;;;;;4994853;28;20050;-87
2024/01/08 03:06:54;;;;;;;7.63;4.15;;;-1.40;99.90;;;;;;4994511;28;20155;-88
2024/01/08 03:09:21;;;;;;;9.77;4.22;;;-1.40;99.90;;;;;;4996367;28;20396;-87
2024/01/08 03:11:47;;;;;;;7.75;3.92;;;-1.40;99.90;;;;;;5013840;28;20038;-87
2024/01/08 03:14:14;;;;;;;10.18;3.83;;;-1.40;99.90;;;;;;5027560;28;20042;-88
2024/01/08 03:16:40;;;;;;;7.22;3.90;;;-1.40;99.90;;;;;;4994730;28;20038;-88
2024/01/08 03:19:07;;;;;;;8.52;3.97;;;-1.40;99.90;;;;;;4981729;28;20506;-88
2024/01/08 03:21:34;;;;;;;8.23;3.78;;;-1.40;99.90;;;;;;4994743;28;20042;-88
2024/01/08 03:24:00;;;;;;;9.93;3.20;;;-1.50;99.90;;;;;;4994186;28;20105;-88
2024/01/08 03:26:27;;;;;;;9.48;4.25;;;-1.40;99.90;;;;;;5010543;28;20093;-88
2024/01/08 03:28:53;;;;;;;9.80;3.60;;;-1.50;99.90;;;;;;4994090;28;20064;-88
2024/01/08 03:31:20;;;;;;;10.50;3.65;;;-1.50;99.90;;;;;;4994789;28;20066;-88
2024/01/08 03:33:47;;;;;;;7.57;3.47;;;-1.50;99.90;;;;;;4981579;28;20035;-88
2024/01/08 03:36:14;;;;;;;7.75;3.60;;;-1.50;99.90;;;;;;4993924;28;20093;-88
2024/01/08 03:38:42;;;;;;;8.77;4.30;;;-1.50;99.90;;;;;;5006736;28;20662;-87
2024/01/08 03:41:08;;;;;;;9.15;3.58;;;-1.60;99.90;;;;;;5004198;28;20045;-88
2024/01/08 03:43:35;;;;;;;7.75;3.53;;;-1.60;99.90;;;;;;5008750;28;20121;-89
2024/01/08 03:46:02;;;;;;;7.53;3.50;;;-0.90;99.90;;;;;;4994486;28;20089;-87
2024/01/08 03:48:28;;;;;;;8.65;3.85;;;-1.70;99.90;;;;;;5003980;28;20054;-88
2024/01/08 03:50:55;;;;;;;7.68;3.20;;;-1.70;99.90;;;;;;5013299;28;20038;-87
2024/01/08 03:53:21;;;;;;;10.85;3.92;;;-1.70;99.90;;;;;;4997900;28;20034;-88
2024/01/08 03:55:48;;;;;;;8.80;3.80;;;-1.70;99.90;;;;;;5002995;28;20077;-88
2024/01/08 03:58:15;;;;;;;7.80;3.90;;;-1.80;99.90;;;;;;4981054;28;20030;-89
2024/01/08 04:00:41;;;;;;;5.55;2.83;;;-1.80;99.90;;;;;;5010041;28;20045;-88
2024/01/08 04:03:08;;;;;;;5.38;2.78;;;-1.80;99.90;;;;;;5010012;28;20054;-88
2024/01/08 04:05:35;;;;;;;7.72;2.90;;;-1.90;99.90;;;;;;4993519;28;20043;-88
2024/01/08 04:08:01;;;;;;;8.27;2.83;;;-1.90;99.90;;;;;;5009592;28;20100;-87
2024/01/08 04:10:28;;;;;;;6.10;2.75;;;-1.90;99.90;;;;;;4993384;28;20042;-88
2024/01/08 04:12:54;;;;;;;7.55;2.92;;;-1.90;99.90;;;;;;5003997;28;20089;-88
2024/01/08 04:15:21;;;;;;;5.53;2.80;;;-0.60;99.90;;;;;;5005129;28;20027;-88
2024/01/08 04:17:48;;;;;;;8.18;3.25;;;-2.00;99.90;;;;;;4993588;28;20047;-88
2024/01/08 04:20:14;;;;;;;6.57;3.10;;;-2.00;99.90;;;;;;4983538;28;20039;-88
2024/01/08 04:22:45;;;;;;;7.88;3.22;;;-0.90;99.90;;;;;;5009520;28;20472;-88
2024/01/08 04:25:12;;;;;;;6.45;2.78;;;-2.10;99.90;;;;;;4980716;29;20046;-88
2024/01/08 04:27:38;;;;;;;6.18;3.05;;;-2.10;99.90;;;;;;5012099;28;20031;-87
2024/01/08 04:30:06;;;;;;;9.27;3.20;;;-2.10;99.90;;;;;;5002632;28;20039;-88
2024/01/08 04:32:32;;;;;;;6.35;3.03;;;-2.20;99.90;;;;;;4993009;28;20043;-88
2024/01/08 04:34:59;;;;;;;5.70;3.05;;;-2.20;99.90;;;;;;5002835;28;20035;-89
2024/01/08 04:37:26;;;;;;;6.75;3.15;;;-2.20;99.90;;;;;;4996954;28;20038;-88
2024/01/08 04:39:53;;;;;;;7.00;3.10;;;-2.20;99.90;;;;;;4993239;28;20048;-88
2024/01/08 04:42:20;;;;;;;7.43;3.35;;;-2.20;99.90;;;;;;4995828;28;20133;-88
2024/01/08 04:44:47;;;;;;;6.82;3.50;;;-2.20;99.90;;;;;;4993244;28;20129;-89
2024/01/08 04:47:14;;;;;;;9.50;3.10;;;-2.20;99.90;;;;;;5008961;28;20450;-88
2024/01/08 04:49:41;;;;;;;8.48;3.30;;;-2.30;99.90;;;;;;4987993;28;20504;-88
2024/01/08 04:52:08;;;;;;;6.13;3.05;;;-2.30;99.90;;;;;;4993197;28;20126;-88
2024/01/08 04:54:34;;;;;;;7.25;3.60;;;-2.30;99.90;;;;;;4992978;28;20030;-88
2024/01/08 04:57:01;;;;;;;6.63;2.92;;;-2.30;99.90;;;;;;5018786;28;20496;-88
2024/01/08 04:59:27;;;;;;;9.43;3.60;;;-2.40;99.90;;;;;;4989922;28;20039;-88
2024/01/08 05:01:54;;;;;;;7.10;3.30;;;-2.40;99.90;;;;;;5008572;28;20496;-88
2024/01/08 05:04:20;;;;;;;8.52;3.63;;;-2.40;99.90;;;;;;4993022;28;20038;-88
2024/01/08 05:06:47;;;;;;;7.85;2.85;;;-2.40;99.90;;;;;;4992763;28;20049;-87
2024/01/08 05:09:14;;;;;;;8.68;3.95;;;-1.40;99.90;;;;;;4992774;28;20516;-88
2024/01/08 05:11:41;;;;;;;9.93;4.18;;;-2.40;99.90;;;;;;4999992;28;20039;-88
2024/01/08 05:14:08;;;;;;;9.40;3.55;;;-2.50;99.90;;;;;;4999090;28;20039;-88
2024/01/08 05:16:35;;;;;;;7.80;3.25;;;-2.40;99.90;;;;;;5003664;28;20113;-88
2024/01/08 05:19:02;;;;;;;8.60;3.80;;;-2.40;99.90;;;;;;5005985;28;20165;-88
2024/01/08 05:21:28;;;;;;;9.30;3.80;;;-2.40;99.90;;;;;;4992779;28;20126;-89
2024/01/08 05:23:55;;;;;;;8.13;3.58;;;-1.30;99.90;;;;;;4994682;28;20051;-88
2024/01/08 05:26:22;;;;;;;8.38;3.42;;;-2.40;99.90;;;;;;5001447;28;20505;-88
2024/01/08 05:28:48;;;;;;;7.82;3.38;;;-2.30;99.90;;;;;;5027771;28;20043;-88
2024/01/08 05:31:15;;;;;;;7.68;3.80;;;-2.30;99.90;;;;;;5014482;28;20389;-88
2024/01/08 05:33:43;;;;;;;8.57;4.10;;;-2.30;99.90;;;;;;4994896;28;20035;-88
2024/01/08 05:36:10;;;;;;;7.97;3.38;;;-2.20;99.90;;;;;;4992665;28;20039;-88
2024/01/08 05:38:36;;;;;;;9.45;3.25;;;-2.20;99.90;;;;;;4992682;28;20039;-88
2024/01/08 05:41:03;;;;;;;7.93;3.78;;;-2.10;99.90;;;;;;4992481;28;20070;-89
2024/01/08 05:43:37;;;;;;;9.88;3.50;;;-2.10;99.90;;;;;;4995613;28;20065;-89
2024/01/08 05:46:07;;;;;;;9.40;3.15;;;-2.10;99.90;;;;;;4980957;29;20102;-89
2024/01/08 05:48:40;;;;;;;6.32;3.42;;;-2.00;99.90;;;;;;5009559;28;20090;-88
2024/01/08 05:51:10;;;;;;;6.15;3.20;;;-2.00;99.90;;;;;;4999814;28;20130;-88
2024/01/08 05:53:36;;;;;;;6.70;3.28;;;-2.00;99.90;;;;;;5024333;28;20034;-88
2024/01/08 05:56:03;;;;;;;8.90;3.33;;;-2.00;99.90;;;;;;4992534;28;20034;-88
2024/01/08 05:58:32;;;;;;;5.70;2.72;;;-1.90;99.90;;;;;;5003845;28;20070;-89
2024/01/08 06:00:59;;;;;;;8.93;3.00;;;-2.00;99.90;;;;;;5008626;28;20435;-89
2024/01/08 06:03:26;;;;;;;7.85;3.17;;;-1.20;99.90;;;;;;4991979;28;20046;-89
2024/01/08 06:05:52;;;;;;;8.00;3.58;;;-1.90;99.90;;;;;;4995833;28;20070;-89
2024/01/08 06:08:19;;;;;;;9.18;3.50;;;-1.90;99.90;;;;;;5005934;28;20050;-88
2024/01/08 06:10:47;;;;;;;6.43;3.22;;;-1.90;99.90;;;;;;5001307;28;20055;-88
2024/01/08 06:13:14;;;;;;;9.35;3.35;;;-1.80;99.90;;;;;;5007980;28;20551;-88
2024/01/08 06:15:41;;;;;;;7.70;3.50;;;-1.80;99.90;;;;;;4996022;28;20082;-89
2024/01/08 06:18:08;;;;;;;6.55;2.78;;;-1.80;99.90;;;;;;5011716;28;20534;-89
2024/01/08 06:20:34;;;;;;;7.38;3.53;;;-1.80;99.90;;;;;;4997507;28;20035;-89
2024/01/08 06:23:04;;;;;;;6.55;3.20;;;-1.80;99.90;;;;;;5006997;28;20042;-89
2024/01/08 06:25:31;;;;;;;9.35;3.70;;;-1.80;99.90;;;;;;4999094;28;20043;-89
2024/01/08 06:27:57;;;;;;;8.32;3.47;;;-1.80;99.90;;;;;;4995348;28;20078;-88
2024/01/08 06:30:24;;;;;;;9.50;3.38;;;-1.80;99.90;;;;;;5013664;28;20046;-89
2024/01/08 06:32:51;;;;;;;7.88;3.85;;;-1.80;99.90;;;;;;4995784;28;20062;-88
2024/01/08 06:35:17;;;;;;;11.70;3.80;;;-1.80;99.90;;;;;;5027241;28;20081;-88
2024/01/08 06:37:44;;;;;;;9.18;3.42;;;-0.50;99.90;;;;;;5005115;28;20039;-88
2024/01/08 06:40:11;;;;;;;7.32;3.08;;;-1.70;99.90;;;;;;5011296;28;20416;-88
2024/01/08 06:42:38;;;;;;;5.50;2.80;;;-1.70;99.90;;;;;;5020887;28;20034;-89
2024/01/08 06:45:05;;;;;;;7.88;3.25;;;-1.70;99.90;;;;;;5010532;28;20526;-88
2024/01/08 06:47:31;;;;;;;9.57;3.45;;;-1.70;99.90;;;;;;4995213;28;20034;-88
2024/01/08 06:49:58;;;;;;;8.48;3.42;;;-1.70;99.90;;;;;;4981984;28;20134;-89
2024/01/08 06:52:24;;;;;;;13.77;3.55;;;-1.70;99.90;;;;;;4995072;28;20047;-89
2024/01/08 06:54:51;;;;;;;8.82;3.03;;;-1.70;99.90;;;;;;4994849;28;20038;-88
2024/01/08 06:57:18;;;;;;;9.05;3.03;;;-1.70;99.90;;;;;;5003259;28;20042;-89
2024/01/08 06:59:45;;;;;;;7.65;3.15;;;-1.70;99.90;;;;;;5028316;28;20038;-88
2024/01/08 07:02:11;;;;;;;7.78;3.42;;;-1.70;99.90;;;;;;4994816;28;20415;-88
2024/01/08 07:04:38;;;;;;;6.85;3.33;;;-1.70;99.90;;;;;;5012588;28;20042;-88
2024/01/08 07:07:04;;;;;;;10.00;3.05;;;-1.70;99.90;;;;;;5010835;28;20081;-88
2024/01/08 07:09:31;;;;;;;11.40;3.30;;;-1.70;99.90;;;;;;5002422;28;20085;-88
2024/01/08 07:11:58;;;;;;;8.40;3.33;;;-1.50;99.90;;;;;;5003724;28;20042;-88
2024/01/08 07:14:24;;;;;;;7.15;3.17;;;-1.30;99.90;;;;;;5011096;28;20190;-88
2024/01/08 07:16:51;;;;;;;10.07;3.45;;;-1.60;99.90;;;;;;4994565;28;20038;-89
2024/01/08 07:19:18;;;;;;;9.70;3.35;;;-1.60;99.90;;;;;;5012567;28;20049;-87
2024/01/08 07:21:44;;;;;;;8.63;3.08;;;-1.60;99.90;;;;;;4973024;28;20038;-89
2024/01/08 07:24:12;;;;;;;9.20;3.22;;;-1.60;99.90;;;;;;4989716;28;20049;-88
2024/01/08 07:26:38;;;;;;;8.02;3.08;;;-1.50;99.90;;;;;;5008136;28;20487;-88
2024/01/08 07:29:06;;;;;;;9.90;3.30;;;-1.50;99.90;;;;;;5001459;28;20054;-88
2024/01/08 07:31:32;;;;;;;11.98;3.15;;;-1.50;99.90;;;;;;4999543;28;20122;-87
2024/01/08 07:33:59;;;;;;;8.68;3.15;;;-0.40;99.90;;;;;;5022729;28;20466;-88
2024/01/08 07:36:26;;;;;;;10.65;3.20;;;-1.50;99.90;;;;;;5020076;28;20732;-88
2024/01/08 07:38:52;;;;;;;12.63;3.88;;;-1.50;99.90;;;;;;4985147;28;20035;-88
2024/01/08 07:41:19;;;;;;;9.52;3.13;;;-1.20;99.90;;;;;;4999591;28;20073;-88
2024/01/08 07:43:45;;;;;;;5.97;2.50;;;-1.50;99.90;;;;;;4995364;28;20046;-86
2024/01/08 07:46:12;;;;;;;8.98;3.08;;;-1.50;99.90;;;;;;4987380;29;20126;-89
2024/01/08 07:48:39;;;;;;;10.48;2.90;;;-1.40;99.90;;;;;;4986870;28;20050;-88
2024/01/08 07:51:06;;;;;;;5.78;2.78;;;-1.40;99.90;;;;;;4991584;28;20121;-89
2024/01/08 07:53:32;;;;;;;6.20;2.72;;;-1.40;99.90;;;;;;5000883;28;20045;-89
2024/01/08 07:55:59;;;;;;;6.35;3.05;;;-1.40;99.90;;;;;;4995218;28;20074;-88
2024/01/08 07:58:25;;;;;;;9.48;3.35;;;-1.40;99.90;;;;;;5000860;28;20141;-88
2024/01/08 08:00:52;;;;;;;6.70;3.28;;;-1.40;99.90;;;;;;4996899;28;20043;-87
2024/01/08 08:03:19;;;;;;;8.77;3.10;;;-1.40;99.90;;;;;;4990376;28;20049;-88
2024/01/08 08:05:45;;;;;;;11.50;3.42;;;0.20;99.90;;;;;;4998777;28;20047;-88
2024/01/08 08:08:12;;;;;;;7.15;3.03;;;-1.30;99.90;;;;;;4981144;29;20039;-88
2024/01/08 08:10:39;;;;;;;8.38;2.90;;;-1.30;99.90;;;;;;4997337;28;20066;-88
2024/01/08 08:13:05;;;;;;;7.38;2.92;;;-0.20;99.90;;;;;;5023519;28;20039;-89
2024/01/08 08:15:33;;;;;;;8.82;2.55;;;-1.30;99.90;;;;;;4993207;28;20412;-87
2024/01/08 08:18:00;;;;;;;5.40;2.50;;;-1.20;99.90;;;;;;5001144;28;20090;-87
2024/01/08 08:20:26;;;;;;;7.43;2.80;;;-1.20;99.90;;;;;;4981967;28;20034;-87
2024/01/08 08:22:53;;;;;;;6.93;2.25;;;-0.50;99.90;;;;;;4990983;28;20402;-87
2024/01/08 08:25:20;;;;;;;8.60;2.60;;;-0.40;99.90;;;;;;4996560;28;20035;-87
2024/01/08 08:27:46;;;;;;;6.85;2.05;;;-1.10;99.90;;;;;;5000625;28;20027;-87
2024/01/08 08:30:16;;;;;;;7.35;2.60;;;-1.10;99.90;;;;;;4982931;28;20039;-87
2024/01/08 08:32:42;;;;;;;7.22;2.80;;;-1.10;99.90;;;;;;4995274;28;20153;-87
2024/01/08 08:35:09;;;;;;;6.40;2.22;;;-1.00;99.90;;;;;;4987985;28;20444;-84
2024/01/08 08:37:36;;;;;;;5.93;2.70;;;-1.00;99.90;;;;;;4989787;28;20035;-86
2024/01/08 08:40:03;;;;;;;5.65;2.10;;;-1.00;99.90;;;;;;5000787;28;20042;-85
2024/01/08 08:42:30;;;;;;;6.60;2.22;;;-1.00;99.90;;;;;;4994060;28;20117;-85
2024/01/08 08:44:57;;;;;;;4.43;2.05;;;-0.90;99.90;;;;;;4990089;28;20444;-86
2024/01/08 08:47:24;;;;;;;7.70;2.67;;;-0.90;99.90;;;;;;4999861;28;20046;-86
2024/01/08 08:49:50;;;;;;;5.65;2.28;;;-0.90;99.90;;;;;;4992348;28;20050;-86
2024/01/08 08:52:17;;;;;;;7.60;2.28;;;-0.90;99.90;;;;;;5000516;28;20411;-86
2024/01/08 08:54:44;;;;;;;8.38;2.50;;;-0.80;99.90;;;;;;5018875;28;20038;-86
2024/01/08 08:57:10;;;;;;;4.65;2.30;;;-0.80;99.90;;;;;;4979199;28;20042;-83
2024/01/08 08:59:37;;;;;;;4.82;2.47;;;-0.80;99.90;;;;;;4995321;28;20118;-85
2024/01/08 09:02:04;;;;;;;6.30;2.80;;;-0.90;99.90;;;;;;4991478;28;20081;-85
2024/01/08 09:04:31;;;;;;;6.20;2.50;;;-0.80;99.90;;;;;;4992575;28;20051;-85
2024/01/08 09:06:57;;;;;;;6.07;2.40;;;-0.80;99.90;;;;;;4997122;28;20038;-84
2024/01/08 09:09:24;;;;;;;9.65;2.25;;;-0.80;99.90;;;;;;4992444;28;20038;-85
2024/01/08 09:11:50;;;;;;;5.25;2.20;;;-0.80;99.90;;;;;;5010733;28;20058;-85
2024/01/08 09:14:18;;;;;;;9.02;2.20;;;-0.80;99.90;;;;;;4994640;28;20038;-84
2024/01/08 09:16:44;;;;;;;8.35;3.13;;;-0.80;99.90;;;;;;4981904;28;20067;-84
2024/01/08 09:19:11;;;;;;;7.18;2.38;;;0.20;99.90;;;;;;4997297;28;20069;-84
2024/01/08 09:21:38;;;;;;;10.25;2.80;;;-0.80;99.90;;;;;;4995249;28;20550;-86
2024/01/08 09:24:05;;;;;;;5.78;2.25;;;-0.80;99.90;;;;;;5015389;28;20101;-85
2024/01/08 09:26:34;;;;;;;6.78;2.40;;;-0.80;99.90;;;;;;5010743;28;20511;-84
2024/01/08 09:29:00;;;;;;;7.07;2.33;;;0.40;99.90;;;;;;4996253;28;20053;-83
2024/01/08 09:31:27;;;;;;;6.97;2.60;;;-0.80;99.90;;;;;;4997525;28;20484;-84
2024/01/08 09:33:54;;;;;;;7.82;2.22;;;-0.70;99.90;;;;;;5004018;28;20042;-84
2024/01/08 09:36:20;;;;;;;5.63;2.45;;;-0.70;99.90;;;;;;4989356;28;20043;-86
2024/01/08 09:38:47;;;;;;;6.18;2.70;;;-0.70;99.90;;;;;;4992598;28;20578;-85
2024/01/08 09:41:14;;;;;;;6.10;2.60;;;-0.20;99.90;;;;;;4995135;28;20043;-85
2024/01/08 09:43:44;;;;;;;4.80;2.22;;;-0.70;99.90;;;;;;5019359;28;20050;-84
2024/01/08 09:46:15;;;;;;;5.63;2.30;;;-0.60;99.90;;;;;;5005328;28;20341;-86
2024/01/08 09:48:43;;;;;;;5.43;2.30;;;-0.60;99.90;;;;;;4998176;28;20047;-87
2024/01/08 09:51:09;;;;;;;6.15;2.45;;;-0.60;99.90;;;;;;5002183;28;20047;-86
2024/01/08 09:53:36;;;;;;;4.15;2.10;;;-0.60;99.90;;;;;;5015417;28;20113;-85
2024/01/08 09:56:03;;;;;;;5.53;2.20;;;-0.40;99.90;;;;;;5003349;28;20130;-85
2024/01/08 09:58:30;;;;;;;6.32;2.53;;;-0.50;99.90;;;;;;5032866;28;20034;-85
2024/01/08 10:00:57;;;;;;;5.88;1.85;;;-0.50;99.90;;;;;;5030173;28;20042;-85
2024/01/08 10:03:23;;;;;;;4.85;2.58;;;-0.50;99.90;;;;;;5012148;28;20039;-85
2024/01/08 10:05:50;;;;;;;6.32;2.45;;;-0.40;99.90;;;;;;5010651;28;20535;-85
2024/01/08 10:08:17;;;;;;;4.40;1.92;;;-0.40;99.90;;;;;;5000248;28;20053;-84
2024/01/08 10:10:44;;;;;;;4.43;2.10;;;0.60;99.90;;;;;;5013844;28;20470;-84
2024/01/08 10:13:12;;;;;;;6.00;2.42;;;-0.40;99.90;;;;;;4998887;28;20077;-85
2024/01/08 10:15:39;;;;;;;6.43;2.55;;;0.40;99.90;;;;;;5026815;28;20038;-85
2024/01/08 10:18:08;;;;;;;5.47;2.47;;;0.10;99.90;;;;;;5010843;28;20069;-85
2024/01/08 10:20:36;;;;;;;7.88;2.58;;;-0.30;99.90;;;;;;4986072;28;20128;-85
2024/01/08 10:23:08;;;;;;;4.57;2.28;;;-0.30;99.90;;;;;;5012867;28;20042;-85
2024/01/08 10:25:37;;;;;;;4.88;2.30;;;-0.30;99.90;;;;;;4988687;28;20039;-85
2024/01/08 10:28:09;;;;;;;4.97;2.33;;;-0.30;99.90;;;;;;5030174;28;20435;-85
2024/01/08 10:30:36;;;;;;;4.70;2.20;;;-0.30;99.90;;;;;;5025309;28;20081;-85
2024/01/08 10:33:03;;;;;;;5.10;2.05;;;-0.20;99.90;;;;;;5030168;28;20077;-86
2024/01/08 10:35:30;;;;;;;5.72;2.30;;;-0.30;99.90;;;;;;4995127;28;20837;-87
2024/01/08 10:38:00;;;;;;;5.38;2.40;;;-0.20;99.90;;;;;;5024064;28;20038;-86
2024/01/08 10:40:30;;;;;;;4.38;2.03;;;-0.20;99.90;;;;;;4994896;28;20049;-87
2024/01/08 10:42:57;;;;;;;5.80;2.30;;;0.60;99.90;;;;;;4994905;28;20041;-87
2024/01/08 10:45:23;;;;;;;5.35;2.33;;;-0.20;99.90;;;;;;5021600;28;20034;-87
2024/01/08 10:48:01;;;;;;;4.55;2.20;;;-0.20;99.90;;;;;;4995720;28;20049;-87
2024/01/08 10:50:29;;;;;;;6.28;2.55;;;-0.20;99.90;;;;;;5000992;28;20054;-87
2024/01/08 10:52:57;;;;;;;5.70;2.25;;;-0.20;99.90;;;;;;4999740;28;20042;-87
2024/01/08 10:55:24;;;;;;;5.82;2.40;;;-0.20;99.90;;;;;;4982160;28;20039;-87
2024/01/08 10:58:02;;;;;;;5.07;2.15;;;0.60;99.90;;;;;;4994892;28;20054;-87
2024/01/08 11:00:30;;;;;;;7.03;2.28;;;-0.20;99.90;;;;;;5008114;28;20414;-87
2024/01/08 11:02:57;;;;;;;6.35;2.83;;;-0.20;99.90;;;;;;5027195;28;20096;-87
2024/01/08 11:05:27;;;;;;;5.13;2.42;;;-0.20;99.90;;;;;;5006529;28;20061;-87
2024/01/08 11:07:54;;;;;;;6.45;2.25;;;-0.10;99.90;;;;;;5001663;28;20068;-87
2024/01/08 11:10:27;;;;;;;7.53;2.42;;;-0.10;99.90;;;;;;5007353;28;20049;-87
2024/01/08 11:12:55;;;;;;;9.75;2.70;;;0.00;99.90;;;;;;5000444;28;20060;-87
2024/01/08 11:15:28;;;;;;;5.95;2.05;;;0.00;99.90;;;;;;4997754;28;20161;-87
2024/01/08 11:17:59;;;;;;;5.47;1.88;;;0.00;99.90;;;;;;4992088;28;20726;-87
2024/01/08 11:20:43;;;;;;;5.60;2.40;;;-0.10;99.90;;;;;;5003983;28;20161;-87
2024/01/08 11:23:39;;;;;;;6.40;2.63;;;-0.10;99.90;;;;;;4987194;28;20034;-87
2024/01/08 11:26:14;;;;;;;5.07;2.00;;;-0.20;99.90;;;;;;4985042;28;20046;-87
2024/01/08 11:28:41;;;;;;;5.35;2.33;;;-0.20;99.90;;;;;;5015418;28;20034;-87
2024/01/08 11:31:41;;;;;;;4.05;2.05;;;-0.20;99.90;;;;;;5024751;28;20449;-87
2024/01/08 11:34:17;;;;;;;6.35;2.08;;;-0.20;99.90;;;;;;5017322;28;20491;-87
2024/01/08 11:36:47;;;;;;;5.53;2.50;;;-0.30;99.90;;;;;;5013750;28;20045;-87
2024/01/08 11:39:18;;;;;;;4.35;2.05;;;-0.20;99.90;;;;;;4997431;28;20046;-88
2024/01/08 11:41:45;;;;;;;4.70;2.08;;;-0.20;99.90;;;;;;4995357;28;20034;-88
2024/01/08 11:44:16;;;;;;;5.97;2.30;;;-0.30;99.90;;;;;;5009812;28;20042;-87
2024/01/08 11:46:43;;;;;;;5.40;2.08;;;-0.30;99.90;;;;;;5021495;28;20049;-87
2024/01/08 11:49:10;;;;;;;6.10;2.20;;;0.60;99.90;;;;;;5029065;28;20138;-87
2024/01/08 11:51:44;;;;;;;5.28;2.50;;;-0.30;99.90;;;;;;5017849;28;20129;-87
2024/01/08 11:54:15;;;;;;;5.68;2.20;;;-0.30;99.90;;;;;;4996506;28;20057;-87
2024/01/08 11:56:42;;;;;;;7.28;2.60;;;-0.30;99.90;;;;;;4998224;28;20501;-86
2024/01/08 11:59:09;;;;;;;6.95;2.20;;;-0.30;99.90;;;;;;5004184;28;20030;-87
2024/01/08 12:01:36;;;;;;;3.75;2.00;;;-0.30;99.90;;;;;;5027977;28;20740;-88
2024/01/08 12:04:03;;;;;;;5.95;2.10;;;-0.30;99.90;;;;;;5004550;28;20070;-87
2024/01/08 12:06:29;;;;;;;6.07;2.10;;;-0.30;99.90;;;;;;4993875;28;20034;-87
2024/01/08 12:08:56;;;;;;;5.05;2.42;;;-0.40;99.90;;;;;;5004421;28;20044;-87
2024/01/08 12:11:25;;;;;;;4.55;2.20;;;-0.40;99.90;;;;;;5012225;28;20101;-88
2024/01/08 12:13:53;;;;;;;4.97;2.10;;;-0.50;99.90;;;;;;5008804;28;20046;-87
2024/01/08 12:16:20;;;;;;;7.03;2.13;;;-0.50;99.90;;;;;;5000766;28;20045;-87
2024/01/08 12:18:47;;;;;;;4.88;1.92;;;-0.50;99.90;;;;;;5043903;28;20387;-87
2024/01/08 12:21:14;;;;;;;6.22;2.33;;;-0.50;99.90;;;;;;5013365;28;20096;-88
2024/01/08 12:23:41;;;;;;;4.63;2.28;;;-0.40;99.90;;;;;;5009887;28;20045;-89
2024/01/08 12:26:07;;;;;;;4.28;2.17;;;-0.40;99.90;;;;;;5004602;28;20391;-87
2024/01/08 12:28:34;;;;;;;4.45;2.40;;;-0.40;99.90;;;;;;4991627;28;20053;-87
2024/01/08 12:31:01;;;;;;;5.45;2.22;;;-0.40;99.90;;;;;;4991142;28;20077;-87
2024/01/08 12:33:28;;;;;;;9.25;2.25;;;0.60;99.90;;;;;;4998984;28;20096;-88
2024/01/08 12:35:55;;;;;;;10.63;2.50;;;-0.40;99.90;;;;;;4992132;28;20074;-87
2024/01/08 12:38:22;;;;;;;7.60;2.30;;;-0.40;99.90;;;;;;4984361;28;20117;-88
2024/01/08 12:40:53;;;;;;;7.13;2.60;;;-0.40;99.90;;;;;;4986073;28;20185;-88
2024/01/08 12:43:20;;;;;;;5.82;2.30;;;-0.30;99.90;;;;;;5016225;28;20053;-88
2024/01/08 12:45:47;;;;;;;4.68;2.35;;;-0.30;99.90;;;;;;5039974;28;20522;-88